Time;durP1;ratioP1;P1;durP2;ratioP2;P2;SDS_P1;SDS_P2;PMS_P1;PMS_P2;Temp;Humidity;BMP_temperature;BMP_pressure;BME280_temperature;BME280_humidity;BME280_pressure;Samples;Min_cycle;Max_cycle;Signal;HPM_P1;HPM_P2
2021/08/02 00:01:35;;;;;;;2.58;2.00;;;17.30;74.10;;;17.56;58.66;97337.78;4826346;29;20061;-39
2021/08/02 00:04:10;;;;;;;2.72;1.48;;;17.20;74.20;;;17.57;58.58;97333.25;4853323;29;20058;-39
2021/08/02 00:06:48;;;;;;;2.47;1.65;;;17.20;74.00;;;17.55;58.63;97341.53;4867037;29;20371;-39
2021/08/02 00:09:28;;;;;;;3.42;2.30;;;17.20;73.90;;;17.52;58.70;97348.19;4853614;29;20080;-39
2021/08/02 00:12:16;;;;;;;2.47;1.88;;;17.20;74.20;;;17.45;58.81;97347.38;4852803;29;20065;-39
2021/08/02 00:14:46;;;;;;;2.35;1.80;;;17.10;74.70;;;17.36;58.98;97347.81;4854512;29;20426;-39
2021/08/02 00:17:14;;;;;;;2.33;1.70;;;17.00;74.80;;;17.34;59.15;97347.19;4853236;29;20056;-39
2021/08/02 00:19:42;;;;;;;2.85;1.60;;;17.00;75.00;;;17.31;59.05;97346.59;4853062;29;20069;-39
2021/08/02 00:22:10;;;;;;;2.67;1.70;;;16.90;75.20;;;17.26;59.80;97343.69;4853151;29;20064;-39
2021/08/02 00:24:38;;;;;;;2.75;1.90;;;16.90;76.00;;;17.26;59.51;97349.06;4852080;29;20037;-39
2021/08/02 00:27:08;;;;;;;3.17;2.20;;;16.90;75.80;;;17.22;59.58;97353.22;4853323;29;20057;-39
2021/08/02 00:29:39;;;;;;;2.13;1.80;;;16.90;75.80;;;17.18;59.73;97359.25;4852602;29;20061;-39
2021/08/02 00:32:07;;;;;;;5.18;2.20;;;16.80;75.70;;;17.18;59.71;97365.44;4853139;29;20062;-39
2021/08/02 00:34:35;;;;;;;2.10;1.90;;;16.80;75.40;;;17.21;59.77;97362.31;4852514;29;20065;-39
2021/08/02 00:37:07;;;;;;;2.20;2.00;;;16.90;75.40;;;17.18;59.71;97376.22;4852570;29;20063;-39
2021/08/02 00:39:46;;;;;;;2.75;1.98;;;16.90;75.70;;;17.17;59.96;97366.47;4852166;29;20061;-39
2021/08/02 00:42:35;;;;;;;4.45;2.20;;;16.90;76.10;;;17.17;59.69;97371.84;4852587;29;20057;-39
2021/08/02 00:45:08;;;;;;;2.38;1.70;;;16.80;76.20;;;17.15;59.85;97365.03;4854175;29;20053;-39
2021/08/02 00:47:39;;;;;;;5.72;2.08;;;16.80;76.20;;;17.16;59.83;97378.28;4852425;29;20260;-39
2021/08/02 00:50:17;;;;;;;2.20;1.67;;;16.80;76.20;;;17.06;60.49;97386.78;4854072;29;20061;-39
2021/08/02 00:53:04;;;;;;;3.10;1.92;;;16.70;76.70;;;17.10;59.87;97373.75;4850000;29;20072;-39
2021/08/02 00:55:39;;;;;;;3.50;1.90;;;16.80;77.10;;;17.09;60.26;97370.19;4852031;29;20071;-39
2021/08/02 00:58:15;;;;;;;3.17;2.03;;;16.80;76.40;;;17.10;60.14;97371.06;4851831;29;20360;-39
2021/08/02 01:00:47;;;;;;;3.53;1.80;;;16.80;76.40;;;17.10;60.16;97369.19;4852974;29;20055;-39
2021/08/02 01:03:16;;;;;;;3.22;1.95;;;16.80;76.00;;;17.04;60.07;97374.56;4852409;29;20352;-39
2021/08/02 01:05:52;;;;;;;4.05;2.05;;;16.70;76.00;;;17.02;60.30;97374.78;4852731;29;20054;-39
2021/08/02 01:08:30;;;;;;;2.17;1.70;;;16.70;76.30;;;17.02;59.96;97364.03;4852766;29;20058;-39
2021/08/02 01:11:11;;;;;;;3.03;1.70;;;16.70;76.20;;;16.96;60.12;97374.78;4849326;29;20229;-39
2021/08/02 01:13:43;;;;;;;2.60;1.77;;;16.70;76.30;;;16.97;60.38;97373.75;4853137;29;20061;-39
2021/08/02 01:16:12;;;;;;;3.58;2.40;;;16.70;76.10;;;16.91;60.21;97367.34;4854407;29;20046;-39
2021/08/02 01:18:45;;;;;;;2.83;2.35;;;16.60;75.90;;;16.93;59.92;97376.03;4851161;29;20061;-39
2021/08/02 01:21:21;;;;;;;3.33;1.80;;;16.70;75.80;;;16.92;59.94;97372.53;4836350;29;20249;-39
2021/08/02 01:23:52;;;;;;;4.68;2.10;;;16.70;75.50;;;16.93;59.69;97370.66;4851111;29;20060;-39
2021/08/02 01:26:42;;;;;;;4.45;2.10;;;16.70;75.20;;;16.94;59.85;97366.91;4853213;29;20670;-39
2021/08/02 01:30:22;;;;;;;3.58;1.70;;;16.80;74.80;;;16.91;59.76;97368.16;4851613;29;20267;-39
2021/08/02 01:32:58;;;;;;;4.43;2.78;;;16.80;74.50;;;16.97;59.63;97357.63;4852470;29;20452;-39
2021/08/02 01:35:26;;;;;;;5.53;2.10;;;16.80;74.60;;;17.01;59.35;97356.97;4852778;29;20259;-39
2021/08/02 01:37:56;;;;;;;2.85;1.80;;;16.80;74.20;;;17.05;59.10;97352.03;4849526;29;20261;-39
2021/08/02 01:40:28;;;;;;;4.25;1.88;;;16.80;74.00;;;17.06;59.12;97353.66;4852721;29;20071;-39
2021/08/02 01:42:58;;;;;;;2.78;1.77;;;16.80;73.90;;;17.06;59.04;97356.34;4851076;29;20050;-39
2021/08/02 01:45:27;;;;;;;2.63;1.90;;;16.90;73.90;;;17.09;59.03;97353.25;4852174;29;20239;-39
2021/08/02 01:49:00;;;;;;;3.83;2.55;;;16.90;73.70;;;17.02;59.36;97353.28;4851058;29;20375;-39
2021/08/02 01:51:51;;;;;;;3.47;2.00;;;16.80;74.00;;;17.00;58.98;97349.97;4853514;29;20258;-39
2021/08/02 01:54:43;;;;;;;3.38;1.70;;;16.80;74.30;;;17.04;59.17;97350.34;4851767;29;20065;-39
2021/08/02 01:57:20;;;;;;;2.78;1.67;;;16.80;74.00;;;17.02;58.96;97353.28;4852810;29;20063;-39
2021/08/02 02:00:10;;;;;;;1.90;1.70;;;16.80;74.30;;;16.98;59.04;97356.56;4850927;29;20053;-39
2021/08/02 02:02:57;;;;;;;3.35;2.17;;;16.70;74.20;;;16.93;59.42;97363.41;4855216;29;20370;-39
2021/08/02 02:05:44;;;;;;;2.42;1.95;;;16.70;74.10;;;16.95;59.17;97354.31;4841113;29;20521;-39
2021/08/02 02:08:25;;;;;;;2.65;1.90;;;16.70;74.30;;;16.92;59.27;97361.78;4855385;29;20061;-39
2021/08/02 02:10:58;;;;;;;2.70;1.80;;;16.70;74.20;;;16.93;59.29;97358.03;4853842;29;20351;-39
2021/08/02 02:13:42;;;;;;;3.05;1.80;;;16.70;74.40;;;16.97;59.18;97366.50;4839611;29;20374;-39
2021/08/02 02:16:13;;;;;;;3.55;1.63;;;16.70;74.30;;;16.99;59.06;97356.38;4855003;29;20061;-39
2021/08/02 02:18:53;;;;;;;3.30;1.90;;;16.80;74.10;;;17.01;59.20;97350.78;4853492;29;20053;-39
2021/08/02 02:21:26;;;;;;;2.72;1.70;;;16.80;74.00;;;16.96;59.35;97355.94;4853198;29;20053;-39
2021/08/02 02:23:59;;;;;;;2.50;1.80;;;16.70;74.20;;;16.92;59.16;97359.06;4854860;29;20061;-39
2021/08/02 02:26:31;;;;;;;4.82;1.75;;;16.60;74.30;;;16.92;59.39;97367.16;4854456;29;20276;-39
2021/08/02 02:29:10;;;;;;;2.43;1.90;;;16.60;74.50;;;16.93;59.29;97366.09;4852738;29;20072;-39
2021/08/02 02:31:41;;;;;;;2.40;1.90;;;16.70;74.60;;;16.93;59.56;97368.78;4854905;29;20302;-39
2021/08/02 02:34:12;;;;;;;2.70;1.83;;;16.60;74.50;;;16.90;59.34;97371.91;4854450;29;20061;-39
2021/08/02 02:36:45;;;;;;;1.95;1.70;;;16.60;74.50;;;16.89;59.48;97374.78;4854606;29;20069;-39
2021/08/02 02:39:16;;;;;;;3.28;1.75;;;16.60;74.50;;;16.89;59.29;97372.94;4855167;29;20069;-39
2021/08/02 02:41:46;;;;;;;2.97;1.75;;;16.60;74.40;;;16.87;59.29;97376.88;4854143;29;20049;-39
2021/08/02 02:44:18;;;;;;;3.22;1.70;;;16.60;74.50;;;16.84;59.50;97378.09;4838768;29;20371;-39
2021/08/02 02:46:48;;;;;;;2.65;1.60;;;16.50;74.70;;;16.81;59.19;97380.31;4853829;29;20053;-39
2021/08/02 02:49:22;;;;;;;3.22;2.00;;;16.50;74.90;;;16.74;59.63;97378.47;4853497;29;20057;-38
2021/08/02 02:51:50;;;;;;;3.70;1.70;;;16.40;75.20;;;16.69;59.67;97378.28;4854028;29;20065;-39
2021/08/02 02:54:21;;;;;;;2.47;1.75;;;16.40;75.20;;;16.66;59.65;97381.38;4852992;29;20065;-39
2021/08/02 02:56:53;;;;;;;;;;;16.30;75.30;;;16.61;59.59;97389.22;4854533;29;20061;-39
2021/08/02 02:59:22;;;;;;;2.83;2.08;;;16.30;75.90;;;16.57;60.08;97387.97;4852463;29;19934;-39
2021/08/02 03:01:53;;;;;;;2.92;2.25;;;16.20;76.00;;;16.50;60.33;97384.47;4853565;29;20065;-39
2021/08/02 03:04:28;;;;;;;;;;;16.10;76.60;;;16.43;60.25;97389.00;4839774;29;20072;-39
2021/08/02 03:07:00;;;;;;;2.22;1.60;;;16.10;77.50;;;16.42;60.33;97385.50;4854518;29;19928;-39
2021/08/02 03:09:38;;;;;;;3.42;1.98;;;16.00;77.00;;;16.36;60.82;97388.97;4853683;29;20057;-39
2021/08/02 03:12:09;;;;;;;2.53;1.63;;;16.00;77.50;;;16.32;60.75;97385.06;4838860;29;20063;-39
2021/08/02 03:14:38;;;;;;;4.88;2.15;;;15.90;77.50;;;16.29;60.94;97388.16;4855480;29;20072;-39
2021/08/02 03:17:08;;;;;;;3.63;1.98;;;16.00;77.60;;;16.31;60.81;97386.09;4853858;29;20066;-39
2021/08/02 03:19:37;;;;;;;2.72;2.05;;;16.00;77.40;;;16.27;61.14;97393.72;4853725;29;20254;-39
2021/08/02 03:22:39;;;;;;;2.72;2.15;;;16.00;77.50;;;16.29;61.16;97399.72;4853033;29;20066;-39
2021/08/02 03:25:43;;;;;;;2.55;1.70;;;16.00;77.60;;;16.24;61.10;97398.69;4853085;29;20348;-39
2021/08/02 03:29:14;;;;;;;2.92;1.95;;;16.00;77.50;;;16.22;61.12;97406.94;4845031;29;20073;-39
2021/08/02 03:31:56;;;;;;;3.47;2.28;;;15.90;78.10;;;16.24;61.17;97409.41;4831603;29;20260;-39
2021/08/02 03:34:29;;;;;;;2.35;1.83;;;16.00;78.10;;;16.30;61.28;97401.41;4853724;29;20053;-39
2021/08/02 03:36:58;;;;;;;3.60;1.70;;;16.10;77.70;;;16.36;61.04;97402.41;4853636;29;20065;-39
2021/08/02 03:39:28;;;;;;;2.58;1.55;;;16.10;77.30;;;16.41;61.30;97404.50;4853087;29;20060;-39
2021/08/02 03:41:57;;;;;;;2.42;1.75;;;16.20;77.10;;;16.45;60.93;97413.81;4851991;29;20065;-39
2021/08/02 03:44:26;;;;;;;2.20;1.63;;;16.20;76.90;;;16.46;61.08;97410.06;4852891;29;20056;-39
2021/08/02 03:46:55;;;;;;;4.57;1.85;;;16.20;76.90;;;16.48;61.02;97416.09;4853300;29;20060;-39
2021/08/02 03:49:23;;;;;;;3.50;2.17;;;16.20;77.00;;;16.51;61.15;97415.69;4852581;29;20065;-39
2021/08/02 03:51:57;;;;;;;3.00;2.75;;;16.20;76.80;;;16.56;61.10;97417.75;4853068;29;20071;-38
2021/08/02 03:54:28;;;;;;;3.00;2.47;;;16.30;76.90;;;16.60;61.18;97417.13;4854552;29;20057;-39
2021/08/02 03:56:59;;;;;;;3.55;2.08;;;16.40;76.90;;;16.62;61.38;97423.13;4853300;29;20351;-39
2021/08/02 03:59:27;;;;;;;6.18;2.40;;;16.40;77.10;;;16.63;61.27;97422.09;4853460;29;20061;-39
2021/08/02 04:01:55;;;;;;;2.90;2.10;;;16.40;77.40;;;16.67;61.39;97427.88;4853677;29;20067;-39
2021/08/02 04:04:23;;;;;;;2.42;2.00;;;16.50;77.60;;;16.68;61.22;97425.00;4852543;29;20057;-38
2021/08/02 04:06:51;;;;;;;3.33;2.00;;;16.50;77.30;;;16.70;61.21;97432.88;4854976;29;20352;-38
2021/08/02 04:09:19;;;;;;;4.30;2.58;;;16.50;77.20;;;16.69;61.04;97428.50;4854882;29;20359;-39
2021/08/02 04:11:47;;;;;;;3.83;2.72;;;16.50;77.30;;;16.69;61.26;97439.25;4851633;29;20355;-39
2021/08/02 04:14:15;;;;;;;4.03;2.50;;;16.40;77.30;;;16.69;61.37;97444.63;4852410;29;20072;-39
2021/08/02 04:16:43;;;;;;;4.50;2.20;;;16.50;77.50;;;16.70;61.25;97436.38;4854209;29;20084;-39
2021/08/02 04:19:12;;;;;;;3.60;1.98;;;16.50;77.50;;;16.72;61.23;97446.91;4854287;29;20367;-38
2021/08/02 04:21:40;;;;;;;5.93;3.08;;;16.50;77.50;;;16.73;61.49;97448.59;4853155;29;20063;-38
2021/08/02 04:24:08;;;;;;;3.80;2.10;;;16.50;77.50;;;16.74;61.46;97442.16;4852211;29;20057;-38
2021/08/02 04:26:35;;;;;;;6.07;2.50;;;16.50;77.60;;;16.73;61.34;97449.41;4853452;29;20255;-38
2021/08/02 04:29:03;;;;;;;3.22;2.13;;;16.50;77.70;;;16.74;61.57;97455.59;4853491;29;20065;-38
2021/08/02 04:31:32;;;;;;;4.93;2.28;;;16.50;77.80;;;16.77;61.37;97455.22;4852745;29;20076;-47
2021/08/02 04:34:03;;;;;;;3.50;2.10;;;16.60;77.70;;;16.81;61.44;97458.28;4853474;29;20061;-39
2021/08/02 04:36:31;;;;;;;3.35;2.00;;;16.60;77.50;;;16.83;61.27;97458.97;4853715;29;20060;-39
2021/08/02 04:38:59;;;;;;;2.90;2.08;;;16.70;77.40;;;16.85;61.42;97463.09;4852391;29;20053;-39
2021/08/02 04:41:28;;;;;;;2.60;1.75;;;16.60;77.10;;;16.86;61.25;97462.03;4851507;29;20063;-39
2021/08/02 04:43:56;;;;;;;3.33;2.20;;;16.70;77.10;;;16.88;61.31;97462.66;4852554;29;20062;-39
2021/08/02 04:46:23;;;;;;;3.03;2.13;;;16.70;77.10;;;16.90;61.48;97465.16;4853276;29;20065;-41
2021/08/02 04:48:51;;;;;;;3.83;2.25;;;16.80;77.10;;;16.91;61.29;97469.50;4851945;29;20069;-39
2021/08/02 04:51:19;;;;;;;3.28;2.20;;;16.70;76.90;;;16.89;61.38;97468.91;4851589;29;20062;-38
2021/08/02 04:53:47;;;;;;;2.60;2.03;;;16.70;77.00;;;16.87;61.37;97470.97;4853038;29;20512;-38
2021/08/02 04:56:15;;;;;;;2.97;2.10;;;16.60;77.20;;;16.87;61.67;97468.28;4852978;29;20065;-40
2021/08/02 04:58:43;;;;;;;6.70;2.58;;;16.60;77.80;;;16.86;61.62;97475.50;4850669;29;20045;-38
2021/08/02 05:01:11;;;;;;;4.20;2.38;;;16.60;78.00;;;16.82;61.73;97478.81;4853061;29;20067;-38
2021/08/02 05:03:39;;;;;;;4.38;2.15;;;16.60;78.00;;;16.81;61.72;97475.25;4852794;29;20057;-38
2021/08/02 05:06:07;;;;;;;3.13;2.47;;;16.60;78.00;;;16.82;62.01;97474.25;4853452;29;20049;-39
2021/08/02 05:08:35;;;;;;;4.13;2.58;;;16.70;78.00;;;16.81;61.82;97475.25;4851830;29;20244;-38
2021/08/02 05:11:03;;;;;;;5.90;2.42;;;16.60;78.20;;;16.76;62.10;97476.91;4851519;29;20267;-38
2021/08/02 05:13:31;;;;;;;4.28;2.60;;;16.50;78.70;;;16.72;62.13;97476.50;4852850;29;20301;-39
2021/08/02 05:15:59;;;;;;;3.78;2.30;;;16.50;78.90;;;16.70;62.18;97476.69;4853085;29;20080;-38
2021/08/02 05:18:27;;;;;;;4.10;2.63;;;16.50;79.00;;;16.69;62.33;97472.34;4851641;29;20053;-38
2021/08/02 05:20:55;;;;;;;7.22;2.47;;;16.40;79.20;;;16.71;62.35;97483.72;4851949;29;20058;-38
2021/08/02 05:23:23;;;;;;;4.03;2.28;;;16.50;79.20;;;16.69;62.36;97480.41;4853388;29;20251;-38
2021/08/02 05:25:51;;;;;;;5.93;2.40;;;16.50;79.20;;;16.69;62.46;97475.03;4852567;29;20060;-38
2021/08/02 05:28:20;;;;;;;3.22;2.03;;;16.50;79.30;;;16.70;62.48;97473.19;4852019;29;20080;-38
2021/08/02 05:30:48;;;;;;;4.32;2.38;;;16.50;79.30;;;16.73;62.49;97483.53;4851195;29;20384;-38
2021/08/02 05:33:16;;;;;;;6.13;2.22;;;16.50;79.00;;;16.73;62.37;97476.28;4851907;29;20063;-39
2021/08/02 05:35:44;;;;;;;4.63;2.33;;;16.50;79.10;;;16.76;62.59;97479.59;4851947;29;20062;-38
2021/08/02 05:38:12;;;;;;;3.97;2.60;;;16.60;79.00;;;16.80;62.35;97483.53;4853375;29;20063;-38
2021/08/02 05:40:40;;;;;;;8.63;2.40;;;16.60;79.20;;;16.82;62.43;97481.50;4854735;29;20057;-38
2021/08/02 05:43:07;;;;;;;5.95;2.80;;;16.60;79.00;;;16.83;62.61;97475.91;4855502;29;20057;-38
2021/08/02 05:45:35;;;;;;;6.60;3.28;;;16.60;79.20;;;16.83;62.55;97470.53;4855210;29;20063;-38
2021/08/02 05:48:04;;;;;;;4.30;2.33;;;16.60;79.50;;;16.84;62.52;97479.44;4855840;29;20061;-38
2021/08/02 05:50:32;;;;;;;5.38;2.85;;;16.70;79.40;;;16.81;62.72;97480.66;4838945;29;20054;-39
2021/08/02 05:52:59;;;;;;;5.05;2.53;;;16.60;79.50;;;16.81;62.80;97482.47;4855859;29;20343;-38
2021/08/02 05:55:27;;;;;;;8.20;2.47;;;16.60;79.50;;;16.82;62.85;97487.69;4856518;29;20053;-38
2021/08/02 05:57:55;;;;;;;6.28;2.20;;;16.60;79.60;;;16.82;63.02;97485.00;4854041;29;20060;-38
2021/08/02 06:00:24;;;;;;;5.10;2.47;;;16.60;79.80;;;16.87;63.10;97490.59;4854771;29;20068;-38
2021/08/02 06:02:52;;;;;;;4.38;2.08;;;16.70;79.80;;;16.91;63.07;97499.91;4856351;29;20116;-38
2021/08/02 06:05:20;;;;;;;4.82;2.15;;;16.80;79.60;;;16.94;63.03;97501.34;4855964;29;20050;-38
2021/08/02 06:07:47;;;;;;;4.35;2.88;;;16.80;79.60;;;16.97;62.94;97500.97;4856199;29;20070;-38
2021/08/02 06:10:15;;;;;;;2.85;2.13;;;16.80;79.60;;;16.95;62.87;97500.34;4854696;29;20075;-38
2021/08/02 06:12:43;;;;;;;2.38;2.08;;;16.80;79.60;;;16.94;63.05;97501.34;4855405;29;20065;-38
2021/08/02 06:15:12;;;;;;;6.97;2.15;;;16.80;79.90;;;16.96;63.15;97503.84;4855300;29;20061;-38
2021/08/02 06:17:40;;;;;;;4.05;2.13;;;16.80;79.80;;;17.01;63.08;97504.06;4854545;29;20057;-38
2021/08/02 06:20:09;;;;;;;4.80;2.40;;;16.80;79.80;;;17.00;63.17;97505.09;4854596;29;20049;-38
2021/08/02 06:22:38;;;;;;;2.97;2.08;;;16.80;79.90;;;16.99;63.13;97509.66;4855200;29;20058;-38
2021/08/02 06:25:07;;;;;;;4.30;2.50;;;16.80;80.10;;;17.03;63.13;97508.19;4854093;29;20049;-38
2021/08/02 06:27:35;;;;;;;3.35;2.35;;;16.90;80.20;;;17.07;63.03;97514.81;4853816;29;20064;-39
2021/08/02 06:30:05;;;;;;;3.35;2.30;;;17.00;80.10;;;17.13;63.32;97513.16;4855795;29;20209;-39
2021/08/02 06:32:33;;;;;;;4.93;3.08;;;17.00;79.80;;;17.18;63.24;97512.56;4854021;29;20057;-39
2021/08/02 06:35:01;;;;;;;3.80;2.17;;;17.10;79.70;;;17.22;63.03;97514.63;4855131;29;20067;-38
2021/08/02 06:37:28;;;;;;;4.38;2.45;;;17.20;79.50;;;17.26;62.98;97510.47;4855960;29;20495;-38
2021/08/02 06:39:56;;;;;;;3.60;2.10;;;17.20;79.20;;;17.31;62.94;97512.53;4855492;29;20466;-38
2021/08/02 06:42:24;;;;;;;3.60;2.17;;;17.30;79.00;;;17.30;62.83;97514.41;4851699;29;20054;-38
2021/08/02 06:44:52;;;;;;;3.85;2.05;;;17.20;79.00;;;17.31;62.83;97518.78;4856388;29;20057;-38
2021/08/02 06:47:20;;;;;;;2.63;2.10;;;17.20;79.00;;;17.32;62.88;97522.28;4853477;29;20058;-38
2021/08/02 06:49:48;;;;;;;3.58;2.55;;;17.30;79.20;;;17.37;63.07;97517.13;4853118;29;20057;-39
2021/08/02 06:52:16;;;;;;;5.72;2.63;;;17.30;79.10;;;17.44;62.82;97517.91;4853889;29;20061;-38
2021/08/02 06:54:44;;;;;;;5.07;2.95;;;17.40;78.90;;;17.50;62.24;97527.03;4856165;29;20398;-39
2021/08/02 06:57:12;;;;;;;3.75;2.10;;;17.50;77.70;;;17.55;61.93;97516.47;4855766;29;20049;-39
2021/08/02 06:59:40;;;;;;;4.50;3.38;;;17.60;76.70;;;17.57;61.50;97516.28;4854980;29;20049;-39
2021/08/02 07:02:08;;;;;;;7.45;2.88;;;17.60;76.30;;;17.61;61.56;97518.31;4853732;29;20054;-38
2021/08/02 07:04:36;;;;;;;4.05;2.30;;;17.60;76.50;;;17.71;61.59;97520.59;4852915;29;20271;-38
2021/08/02 07:07:04;;;;;;;5.10;2.63;;;17.80;76.30;;;17.78;61.49;97521.41;4853519;29;20060;-38
2021/08/02 07:09:32;;;;;;;3.75;2.28;;;17.90;75.80;;;17.87;61.10;97522.03;4853414;29;20064;-38
2021/08/02 07:12:00;;;;;;;8.57;2.95;;;18.00;74.10;;;17.90;60.82;97514.38;4854736;29;20065;-39
2021/08/02 07:14:28;;;;;;;4.40;2.38;;;18.00;74.70;;;17.98;60.56;97515.19;4853678;29;20296;-38
2021/08/02 07:16:56;;;;;;;3.42;2.08;;;18.10;74.40;;;17.99;60.17;97508.75;4855067;29;20053;-39
2021/08/02 07:19:24;;;;;;;3.55;2.00;;;18.00;74.80;;;17.97;59.39;97513.50;4854740;29;20060;-38
2021/08/02 07:21:52;;;;;;;2.90;2.38;;;18.00;72.60;;;18.03;59.61;97513.50;4854424;29;20058;-39
2021/08/02 07:24:20;;;;;;;1.70;1.58;;;18.10;73.10;;;18.06;59.29;97518.47;4854663;29;20068;-39
2021/08/02 07:26:47;;;;;;;2.28;1.75;;;18.20;72.20;;;18.11;59.13;97520.53;4855455;29;20060;-38
2021/08/02 07:29:15;;;;;;;3.67;1.88;;;18.20;72.10;;;18.19;59.02;97517.59;4853835;29;20057;-39
2021/08/02 07:31:43;;;;;;;2.22;1.65;;;18.30;72.20;;;18.25;58.60;97515.91;4853614;29;20072;-38
2021/08/02 07:34:11;;;;;;;2.92;1.77;;;18.40;71.70;;;18.30;58.64;97527.72;4854127;29;20067;-38
2021/08/02 07:36:39;;;;;;;2.72;1.92;;;18.40;71.20;;;18.35;58.30;97521.66;4854503;29;20362;-39
2021/08/02 07:39:07;;;;;;;2.63;1.75;;;18.50;71.30;;;18.40;58.29;97521.06;4851509;29;20065;-38
2021/08/02 07:41:35;;;;;;;3.05;2.13;;;18.50;70.90;;;18.39;57.82;97520.19;4854643;29;20050;-38
2021/08/02 07:44:04;;;;;;;2.45;1.30;;;18.50;70.20;;;18.40;58.00;97518.34;4852728;29;20068;-38
2021/08/02 07:46:32;;;;;;;2.15;1.63;;;18.40;70.70;;;18.42;58.12;97518.97;4855026;29;20061;-39
2021/08/02 07:49:00;;;;;;;3.38;1.85;;;18.50;70.90;;;18.41;58.08;97523.50;4853872;29;20355;-38
2021/08/02 07:51:28;;;;;;;2.20;1.92;;;18.50;70.80;;;18.37;57.80;97530.38;4853655;29;20099;-39
2021/08/02 07:53:58;;;;;;;2.97;2.63;;;18.50;70.50;;;18.47;58.05;97527.22;4852897;29;20061;-39
2021/08/02 07:56:29;;;;;;;2.30;1.80;;;18.50;71.20;;;18.52;57.95;97521.19;4852963;29;20065;-38
2021/08/02 07:58:57;;;;;;;3.90;1.90;;;18.70;71.00;;;18.52;57.93;97522.00;4852534;29;20050;-39
2021/08/02 08:01:25;;;;;;;2.47;1.55;;;18.60;71.40;;;18.60;57.51;97526.34;4879270;29;20066;-39
2021/08/02 08:03:53;;;;;;;2.50;1.85;;;18.70;70.20;;;18.56;57.34;97520.53;4879219;29;20048;-39
2021/08/02 08:06:22;;;;;;;1.65;1.55;;;18.60;69.40;;;18.58;57.33;97521.16;4881010;29;20057;-40
2021/08/02 08:08:50;;;;;;;2.17;1.42;;;18.70;70.30;;;18.63;57.22;97512.41;4879993;29;20040;-39
2021/08/02 08:11:18;;;;;;;2.10;1.70;;;18.80;69.60;;;18.72;57.07;97521.91;4880914;29;20517;-39
2021/08/02 08:13:46;;;;;;;2.20;1.65;;;18.90;69.20;;;18.78;56.34;97520.22;4880496;29;20075;-39
2021/08/02 08:16:14;;;;;;;2.90;1.83;;;19.00;68.20;;;18.79;56.25;97517.31;4881780;29;20064;-39
2021/08/02 08:18:42;;;;;;;1.95;1.52;;;19.00;68.00;;;18.82;56.25;97516.06;4883997;29;20063;-39
2021/08/02 08:21:10;;;;;;;5.70;1.92;;;19.00;67.90;;;18.88;56.24;97513.34;4889964;29;20045;-39
2021/08/02 08:23:38;;;;;;;2.00;1.70;;;19.10;67.90;;;18.92;56.10;97510.19;4889923;29;20071;-39
2021/08/02 08:26:06;;;;;;;2.75;1.80;;;19.10;68.70;;;18.94;56.20;97506.25;4890430;29;20056;-39
2021/08/02 08:28:34;;;;;;;2.85;1.60;;;19.10;67.90;;;19.00;55.97;97510.78;4888618;29;20359;-39
2021/08/02 08:31:02;;;;;;;2.22;1.67;;;19.20;67.80;;;19.01;55.71;97514.28;4889968;29;20396;-39
2021/08/02 08:33:30;;;;;;;5.65;1.90;;;19.10;67.40;;;19.01;55.85;97514.28;4891872;29;20058;-39
2021/08/02 08:35:58;;;;;;;2.70;1.55;;;19.20;67.80;;;19.10;56.00;97513.00;4888649;29;20067;-39
2021/08/02 08:38:26;;;;;;;3.00;2.17;;;19.30;68.00;;;19.14;55.99;97516.06;4890541;29;20366;-39
2021/08/02 08:40:54;;;;;;;3.40;1.90;;;19.30;67.80;;;19.22;56.33;97521.19;4889840;29;20048;-39
2021/08/02 08:43:22;;;;;;;2.17;1.60;;;19.40;68.00;;;19.28;55.67;97523.00;4889364;29;20068;-39
2021/08/02 08:45:50;;;;;;;2.72;1.50;;;19.50;67.00;;;19.30;55.35;97520.91;4889889;29;20063;-39
2021/08/02 08:48:18;;;;;;;2.40;1.55;;;19.50;65.70;;;19.27;55.09;97521.38;4890415;29;20349;-39
2021/08/02 08:50:46;;;;;;;2.65;1.90;;;19.50;66.80;;;19.32;54.89;97516.13;4887978;29;20048;-39
2021/08/02 08:53:20;;;;;;;1.73;1.50;;;19.50;66.60;;;19.40;54.52;97515.03;4888362;29;20056;-39
2021/08/02 08:55:48;;;;;;;1.75;1.55;;;19.70;65.60;;;19.51;54.48;97517.00;4887840;29;20262;-39
2021/08/02 08:58:16;;;;;;;4.32;1.90;;;19.80;65.20;;;19.66;54.32;97516.66;4887088;29;20068;-39
2021/08/02 09:00:44;;;;;;;2.88;1.67;;;20.00;64.80;;;19.82;54.62;97513.41;4889879;29;20063;-39
2021/08/02 09:03:16;;;;;;;2.78;1.65;;;20.30;65.00;;;19.99;54.14;97507.44;4889874;29;20397;-39
2021/08/02 09:05:48;;;;;;;2.40;1.60;;;20.50;63.80;;;20.05;52.14;97504.66;4889321;29;20053;-38
2021/08/02 09:08:22;;;;;;;1.65;1.33;;;20.60;60.60;;;20.14;51.75;97499.78;4886787;29;20067;-39
2021/08/02 09:10:58;;;;;;;2.75;1.60;;;20.60;61.00;;;20.12;51.78;97507.25;4889241;29;20067;-39
2021/08/02 09:13:35;;;;;;;2.17;1.52;;;20.50;60.50;;;20.11;51.63;97502.09;4890864;29;20067;-39
2021/08/02 09:16:38;;;;;;;2.55;2.00;;;20.40;60.50;;;20.11;51.34;97502.09;4895129;29;20118;-38
2021/08/02 09:19:10;;;;;;;1.90;1.70;;;20.40;60.00;;;20.12;51.76;97506.44;4836588;29;20066;-38
2021/08/02 09:21:50;;;;;;;2.65;1.80;;;20.30;62.00;;;20.09;52.05;97507.72;4885133;29;20068;-38
2021/08/02 09:24:29;;;;;;;2.83;1.90;;;20.20;62.10;;;20.02;52.48;97510.50;4894370;29;20061;-38
2021/08/02 09:26:57;;;;;;;2.25;1.88;;;20.10;63.30;;;19.91;53.27;97516.66;4893060;29;20374;-38
2021/08/02 09:29:34;;;;;;;1.95;1.58;;;19.90;64.60;;;19.86;53.41;97511.91;4892534;29;20067;-38
2021/08/02 09:32:08;;;;;;;2.90;1.63;;;19.80;65.40;;;19.79;54.34;97513.03;4894204;29;20066;-39
2021/08/02 09:34:47;;;;;;;4.70;2.00;;;19.80;66.00;;;19.74;53.88;97511.00;4892058;29;20068;-39
2021/08/02 09:37:33;;;;;;;2.92;1.60;;;19.80;65.50;;;19.78;54.00;97506.00;4894288;29;20080;-41
2021/08/02 09:40:08;;;;;;;2.78;2.00;;;19.80;65.80;;;19.76;54.00;97514.31;4890169;29;20071;-39
2021/08/02 09:42:36;;;;;;;2.72;1.70;;;19.80;65.80;;;19.72;54.29;97510.41;4892094;29;20060;-39
2021/08/02 09:45:26;;;;;;;2.13;1.58;;;19.70;66.50;;;19.67;55.32;97508.31;4893249;29;20057;-38
2021/08/02 09:47:54;;;;;;;3.88;2.53;;;19.70;68.00;;;19.49;56.25;97505.59;4891152;29;20155;-38
2021/08/02 09:50:28;;;;;;;2.88;2.00;;;19.50;69.40;;;19.50;57.20;97509.94;4892746;29;20235;-38
2021/08/02 09:52:57;;;;;;;;;;;19.40;71.10;;;19.47;57.59;97513.91;4892526;29;20064;-38
2021/08/02 09:55:26;;;;;;;4.18;2.25;;;19.40;73.70;;;19.54;58.03;97516.56;4892069;29;19927;-38
2021/08/02 09:57:56;;;;;;;6.68;1.92;;;19.40;73.20;;;19.55;57.81;97517.41;4892415;29;20061;-38
2021/08/02 10:00:39;;;;;;;2.38;1.73;;;19.40;72.10;;;19.58;57.68;97525.88;4892848;29;20246;-39
2021/08/02 10:03:08;;;;;;;2.25;1.90;;;19.50;72.10;;;19.59;57.68;97524.81;4891916;29;20048;-39
2021/08/02 10:05:38;;;;;;;3.67;1.88;;;19.50;72.60;;;19.44;59.35;97524.31;4891229;29;20243;-39
2021/08/02 10:08:27;;;;;;;4.63;2.13;;;19.30;75.10;;;19.25;60.33;97531.53;4893299;29;20045;-38
2021/08/02 10:10:56;;;;;;;2.33;1.58;;;19.00;77.70;;;18.94;60.27;97525.13;4890196;29;20083;-38
2021/08/02 10:13:43;;;;;;;2.70;1.95;;;18.60;76.90;;;18.90;61.12;97523.88;4892374;29;20059;-38
2021/08/02 10:16:18;;;;;;;2.55;1.65;;;18.50;81.30;;;18.73;60.61;97512.78;4890358;29;20062;-39
2021/08/02 10:18:51;;;;;;;2.92;1.67;;;18.30;78.80;;;18.68;60.88;97516.09;4890898;29;20064;-38
2021/08/02 10:21:20;;;;;;;2.00;1.80;;;18.20;79.50;;;18.72;62.04;97513.81;4892785;29;20373;-38
2021/08/02 10:23:48;;;;;;;4.57;2.65;;;18.40;80.80;;;18.79;62.30;97503.81;4890958;29;20087;-38
2021/08/02 10:26:28;;;;;;;2.10;1.50;;;18.60;80.60;;;18.95;61.83;97501.69;4891872;29;20067;-38
2021/08/02 10:29:03;;;;;;;1.27;1.17;;;18.90;79.80;;;18.99;60.95;97502.91;4892312;29;20067;-38
2021/08/02 10:31:51;;;;;;;3.03;1.40;;;18.90;77.00;;;19.06;60.39;97496.41;4892009;29;20052;-39
2021/08/02 10:34:22;;;;;;;1.75;1.40;;;19.00;75.80;;;19.11;59.54;97503.84;4891826;29;20061;-38
2021/08/02 10:37:01;;;;;;;2.55;1.48;;;19.00;75.20;;;19.18;59.57;97495.69;4893284;29;20433;-38
2021/08/02 10:39:35;;;;;;;2.25;1.30;;;19.20;75.40;;;19.15;58.78;97502.34;4893013;29;20342;-39
2021/08/02 10:42:16;;;;;;;1.60;1.38;;;19.10;73.40;;;19.16;59.39;97508.59;4892054;29;20057;-38